Time;durP1;ratioP1;P1;durP2;ratioP2;P2;SDS_P1;SDS_P2;PMS_P1;PMS_P2;Temp;Humidity;BMP_temperature;BMP_pressure;BME280_temperature;BME280_humidity;BME280_pressure;Samples;Min_cycle;Max_cycle;Signal;HPM_P1;HPM_P2
2022/05/18 00:00:10;;;;;;;5.13;2.33;;;14.00;99.90;;;;;;5021135;28;20416;-65
2022/05/18 00:02:36;;;;;;;6.70;3.20;;;13.90;99.90;;;;;;5008051;28;20198;-66
2022/05/18 00:05:03;;;;;;;6.50;2.97;;;13.90;99.90;;;;;;5014261;28;20451;-65
2022/05/18 00:07:28;;;;;;;9.23;2.47;;;13.80;99.90;;;;;;5021082;28;20841;-67
2022/05/18 00:09:56;;;;;;;7.30;3.10;;;13.80;99.90;;;;;;5022428;28;21105;-65
2022/05/18 00:12:22;;;;;;;6.87;2.70;;;13.70;99.90;;;;;;5022630;28;20216;-65
2022/05/18 00:14:48;;;;;;;5.07;2.90;;;13.70;99.90;;;;;;5023932;28;20417;-66
2022/05/18 00:17:14;;;;;;;5.57;2.67;;;13.70;99.90;;;;;;5024056;28;20518;-66
2022/05/18 00:19:39;;;;;;;7.10;1.83;;;13.70;99.90;;;;;;5023311;28;20280;-66
2022/05/18 00:22:05;;;;;;;4.53;2.30;;;13.60;99.90;;;;;;5022028;28;21292;-66
2022/05/18 00:24:31;;;;;;;6.23;2.40;;;13.50;99.90;;;;;;5019679;28;20213;-66
2022/05/18 00:26:56;;;;;;;6.10;2.30;;;13.50;99.90;;;;;;5020255;28;20607;-66
2022/05/18 00:29:22;;;;;;;5.40;2.47;;;13.40;99.90;;;;;;5029795;28;20884;-66
2022/05/18 00:31:48;;;;;;;3.20;2.13;;;13.40;99.90;;;;;;5032179;28;20186;-66
2022/05/18 00:34:16;;;;;;;6.30;2.40;;;13.40;99.90;;;;;;5030973;28;20182;-66
2022/05/18 00:36:42;;;;;;;4.47;2.33;;;13.40;99.90;;;;;;5028868;28;20461;-66
2022/05/18 00:39:08;;;;;;;6.73;2.97;;;13.30;99.90;;;;;;5030876;28;20425;-66
2022/05/18 00:41:34;;;;;;;6.70;2.43;;;13.30;99.90;;;;;;5029999;28;20969;-66
2022/05/18 00:44:00;;;;;;;6.17;3.27;;;13.30;99.90;;;;;;5030677;28;20451;-65
2022/05/18 00:46:26;;;;;;;7.10;2.70;;;13.30;99.90;;;;;;5030084;28;20454;-66
2022/05/18 00:48:53;;;;;;;7.80;2.97;;;13.30;99.90;;;;;;5030562;28;20182;-66
2022/05/18 00:51:38;;;;;;;6.57;2.60;;;13.20;99.90;;;;;;5028215;28;20622;-66
2022/05/18 00:54:11;;;;;;;7.40;2.27;;;13.20;99.90;;;;;;5030130;28;20479;-66
2022/05/18 00:56:44;;;;;;;5.10;2.27;;;13.10;99.90;;;;;;5030028;28;20475;-65
2022/05/18 00:59:18;;;;;;;5.50;1.97;;;13.10;99.90;;;;;;5028465;28;21066;-66
2022/05/18 01:01:45;;;;;;;8.70;2.73;;;13.00;99.90;;;;;;5029883;28;20417;-66
2022/05/18 01:04:12;;;;;;;6.57;2.00;;;13.00;99.90;;;;;;5029717;28;20436;-65
2022/05/18 01:06:51;;;;;;;8.47;1.90;;;13.00;99.90;;;;;;5029583;28;20424;-65
2022/05/18 01:09:31;;;;;;;5.90;2.20;;;12.90;99.90;;;;;;5030093;28;20432;-66
2022/05/18 01:11:57;;;;;;;7.63;2.57;;;12.90;99.90;;;;;;5026316;28;20471;-66
2022/05/18 01:14:30;;;;;;;5.60;2.20;;;12.90;99.90;;;;;;5030094;28;20421;-66
2022/05/18 01:16:56;;;;;;;4.97;2.90;;;12.90;99.90;;;;;;5029729;28;20268;-66
2022/05/18 01:19:36;;;;;;;5.43;2.97;;;12.90;99.90;;;;;;5027250;28;20889;-65
2022/05/18 01:22:16;;;;;;;4.60;2.40;;;12.80;99.90;;;;;;5029968;28;20789;-66
2022/05/18 01:25:09;;;;;;;5.23;2.60;;;12.80;99.90;;;;;;5033817;28;21011;-66
2022/05/18 01:27:35;;;;;;;3.70;1.97;;;12.80;99.90;;;;;;5031364;28;21084;-65
2022/05/18 01:30:01;;;;;;;4.07;2.50;;;12.70;99.90;;;;;;5036687;28;20428;-65
2022/05/18 01:32:43;;;;;;;5.07;2.57;;;12.80;99.90;;;;;;5029010;28;20921;-65
2022/05/18 01:35:11;;;;;;;3.97;2.03;;;12.70;99.90;;;;;;5030028;28;20210;-66
2022/05/18 01:37:37;;;;;;;4.40;1.70;;;12.70;99.90;;;;;;5031249;28;20458;-65
2022/05/18 01:40:26;;;;;;;3.83;1.97;;;12.70;99.90;;;;;;5028951;28;20421;-65
2022/05/18 01:43:03;;;;;;;3.57;2.10;;;12.60;99.90;;;;;;5029544;28;20205;-65
2022/05/18 01:45:29;;;;;;;5.60;2.30;;;12.70;99.90;;;;;;5024648;28;21030;-66
2022/05/18 01:48:06;;;;;;;3.97;1.90;;;12.60;99.90;;;;;;5031993;28;20455;-65
2022/05/18 01:50:31;;;;;;;4.53;2.37;;;12.60;99.90;;;;;;5025319;28;20216;-66
2022/05/18 01:52:57;;;;;;;3.20;1.83;;;12.70;99.90;;;;;;5029494;28;21016;-66
2022/05/18 01:55:24;;;;;;;6.10;2.23;;;12.50;99.90;;;;;;5032818;28;20677;-66
2022/05/18 01:57:49;;;;;;;20.57;2.07;;;12.60;99.90;;;;;;5029924;28;20689;-66
2022/05/18 02:00:15;;;;;;;7.80;1.73;;;12.50;99.90;;;;;;5029856;28;20421;-66
2022/05/18 02:02:41;;;;;;;3.30;2.20;;;12.40;99.90;;;;;;5029553;28;20198;-66
2022/05/18 02:05:08;;;;;;;5.97;2.67;;;12.30;99.90;;;;;;5030101;28;20433;-65
2022/05/18 02:07:33;;;;;;;3.23;1.70;;;12.30;99.90;;;;;;5028862;28;20494;-65
2022/05/18 02:09:59;;;;;;;4.40;2.50;;;12.30;99.90;;;;;;5029678;28;20425;-66
2022/05/18 02:12:25;;;;;;;5.53;3.43;;;12.30;99.90;;;;;;5029246;28;20193;-65
2022/05/18 02:14:50;;;;;;;5.83;3.03;;;12.30;99.90;;;;;;5029562;28;20313;-66
2022/05/18 02:17:16;;;;;;;4.90;2.67;;;12.20;99.90;;;;;;5029093;28;20190;-66
2022/05/18 02:19:42;;;;;;;8.83;2.80;;;12.20;99.90;;;;;;5029433;28;20221;-66
2022/05/18 02:22:07;;;;;;;6.53;2.17;;;12.30;99.90;;;;;;5026866;28;20305;-65
2022/05/18 02:24:33;;;;;;;7.80;2.67;;;12.20;99.90;;;;;;5029436;28;20185;-65
2022/05/18 02:26:59;;;;;;;5.00;2.43;;;12.20;99.90;;;;;;5028972;28;20186;-66
2022/05/18 02:29:24;;;;;;;5.90;2.57;;;12.30;99.90;;;;;;5029011;28;20198;-65
2022/05/18 02:31:50;;;;;;;6.03;3.23;;;12.20;99.90;;;;;;5028979;28;20186;-66
2022/05/18 02:34:16;;;;;;;4.83;2.57;;;12.20;99.90;;;;;;5031390;28;20363;-66
2022/05/18 02:36:42;;;;;;;7.33;2.43;;;12.20;99.90;;;;;;5028274;28;20246;-65
2022/05/18 02:39:08;;;;;;;4.10;2.40;;;12.20;99.90;;;;;;5028888;28;20190;-66
2022/05/18 02:41:34;;;;;;;4.60;2.00;;;12.10;99.90;;;;;;5028615;28;20429;-65
2022/05/18 02:44:00;;;;;;;2.47;1.63;;;12.10;99.90;;;;;;5028496;28;20427;-66
2022/05/18 02:46:26;;;;;;;5.17;2.53;;;12.10;99.90;;;;;;5020367;28;20634;-66
2022/05/18 02:48:52;;;;;;;13.77;2.80;;;12.10;99.90;;;;;;5028792;28;20425;-66
2022/05/18 02:51:18;;;;;;;3.67;2.10;;;12.10;99.90;;;;;;5031582;28;20219;-66
2022/05/18 02:53:44;;;;;;;6.83;2.10;;;12.10;99.90;;;;;;5028491;28;20191;-65
2022/05/18 02:56:16;;;;;;;4.10;2.10;;;12.00;99.90;;;;;;5028634;28;21118;-65
2022/05/18 02:58:48;;;;;;;2.97;1.60;;;12.10;99.90;;;;;;5028738;28;20178;-66
2022/05/18 03:01:16;;;;;;;3.10;1.57;;;12.00;99.90;;;;;;5028586;28;20905;-66
2022/05/18 03:03:44;;;;;;;3.67;2.23;;;12.00;99.90;;;;;;5028193;28;20417;-65
2022/05/18 03:06:11;;;;;;;5.37;1.90;;;12.00;99.90;;;;;;5027780;28;20436;-66
2022/05/18 03:08:39;;;;;;;3.50;2.10;;;12.00;99.90;;;;;;5028133;28;20429;-65
2022/05/18 03:11:04;;;;;;;3.83;1.97;;;11.90;99.90;;;;;;5027936;28;20985;-65
2022/05/18 03:13:31;;;;;;;3.80;1.60;;;11.90;99.90;;;;;;5028142;28;20425;-66
2022/05/18 03:15:57;;;;;;;4.60;2.00;;;11.90;99.90;;;;;;5027875;28;20667;-65
2022/05/18 03:18:24;;;;;;;4.80;1.80;;;11.90;99.90;;;;;;5028380;28;21031;-65
2022/05/18 03:23:34;;;;;;;3.63;1.90;;;11.80;99.90;;;;;;5027830;28;20508;-65
2022/05/18 03:26:11;;;;;;;3.40;2.00;;;11.70;99.90;;;;;;5027370;28;20421;-65
2022/05/18 03:28:38;;;;;;;4.37;2.30;;;11.70;99.90;;;;;;5027918;28;20260;-66
2022/05/18 03:31:05;;;;;;;4.63;2.67;;;11.60;99.90;;;;;;5027440;28;20815;-66
2022/05/18 03:33:31;;;;;;;5.73;2.47;;;11.50;99.90;;;;;;5026128;28;20417;-66
2022/05/18 03:35:56;;;;;;;7.50;2.60;;;11.60;99.90;;;;;;5027149;28;20461;-67
2022/05/18 03:38:22;;;;;;;7.00;2.37;;;11.50;99.90;;;;;;5027870;28;20205;-66
2022/05/18 03:40:48;;;;;;;3.53;2.03;;;11.50;99.90;;;;;;5027929;28;20185;-66
2022/05/18 03:43:14;;;;;;;5.13;2.33;;;11.50;99.90;;;;;;5027879;28;20796;-66
2022/05/18 03:45:41;;;;;;;8.53;2.40;;;11.50;99.90;;;;;;5027404;28;20473;-67
2022/05/18 03:48:07;;;;;;;6.10;2.20;;;11.50;99.90;;;;;;5026934;28;20608;-66
2022/05/18 03:50:36;;;;;;;4.33;2.50;;;11.60;99.90;;;;;;5027465;28;20432;-67
2022/05/18 03:53:03;;;;;;;12.73;2.43;;;11.60;99.90;;;;;;5027040;28;20427;-66
2022/05/18 03:55:28;;;;;;;3.20;1.90;;;11.60;99.90;;;;;;5027656;28;20495;-66
2022/05/18 03:57:54;;;;;;;3.40;2.00;;;11.60;99.90;;;;;;5027650;28;20470;-66
2022/05/18 04:00:20;;;;;;;3.97;1.80;;;11.60;99.90;;;;;;5027555;28;20546;-66
2022/05/18 04:02:49;;;;;;;3.40;2.17;;;11.50;99.90;;;;;;5030026;28;20189;-66
2022/05/18 04:05:17;;;;;;;2.67;1.80;;;11.50;99.90;;;;;;5031650;28;20425;-66
2022/05/18 04:07:42;;;;;;;6.23;2.40;;;11.50;99.90;;;;;;5031313;28;20897;-66
2022/05/18 04:10:09;;;;;;;4.30;2.17;;;11.50;99.90;;;;;;5031886;28;20433;-66
2022/05/18 04:12:35;;;;;;;6.07;2.73;;;11.50;99.90;;;;;;5031149;28;20186;-66
2022/05/18 04:15:02;;;;;;;6.77;2.17;;;11.60;99.90;;;;;;5031118;28;20890;-66
2022/05/18 04:17:28;;;;;;;3.60;2.40;;;11.60;99.90;;;;;;5030813;28;20230;-66
2022/05/18 04:19:54;;;;;;;5.70;2.97;;;11.60;99.90;;;;;;5031137;28;20464;-66
2022/05/18 04:22:25;;;;;;;4.20;2.37;;;11.60;99.90;;;;;;5030834;28;20190;-66
2022/05/18 04:24:51;;;;;;;3.73;2.03;;;11.60;99.90;;;;;;5032091;28;20928;-66
2022/05/18 04:27:17;;;;;;;5.30;2.90;;;11.60;99.90;;;;;;5030513;28;20432;-66
2022/05/18 04:29:43;;;;;;;8.10;3.70;;;11.60;99.90;;;;;;5031182;28;20460;-66
2022/05/18 04:32:09;;;;;;;5.03;3.13;;;11.60;99.90;;;;;;5030888;28;20182;-66
2022/05/18 04:34:35;;;;;;;4.97;2.80;;;11.70;99.90;;;;;;5031269;28;20854;-66
2022/05/18 04:37:01;;;;;;;3.90;2.07;;;11.70;99.90;;;;;;5030300;28;20978;-66
2022/05/18 04:39:26;;;;;;;10.03;3.33;;;11.80;99.90;;;;;;5030935;28;21250;-66
2022/05/18 04:41:52;;;;;;;5.17;2.77;;;11.80;99.90;;;;;;5030744;28;20201;-66
2022/05/18 04:44:18;;;;;;;6.40;2.70;;;11.90;99.90;;;;;;5030598;28;20670;-66
2022/05/18 04:46:44;;;;;;;6.50;3.20;;;12.00;99.90;;;;;;5030321;28;20284;-66
2022/05/18 04:49:13;;;;;;;6.20;3.23;;;12.00;99.90;;;;;;5030939;28;20222;-66
2022/05/18 04:51:39;;;;;;;7.30;2.37;;;12.10;99.90;;;;;;5030119;28;20269;-66
2022/05/18 04:54:05;;;;;;;5.00;2.50;;;12.10;99.90;;;;;;5030714;28;20507;-66
2022/05/18 04:56:31;;;;;;;6.10;2.67;;;12.20;99.90;;;;;;5030526;28;20258;-65
2022/05/18 04:58:57;;;;;;;4.40;2.30;;;12.30;99.90;;;;;;5030614;28;20903;-66
2022/05/18 05:01:25;;;;;;;4.07;2.63;;;12.40;99.90;;;;;;5030507;28;20460;-66
2022/05/18 05:03:51;;;;;;;8.90;2.00;;;12.40;99.90;;;;;;5030505;28;20187;-66
2022/05/18 05:06:17;;;;;;;3.80;2.50;;;12.50;99.90;;;;;;5028835;28;20491;-66
2022/05/18 05:08:43;;;;;;;6.07;3.77;;;12.60;99.90;;;;;;5030266;28;20431;-66
2022/05/18 05:11:08;;;;;;;4.83;2.20;;;12.60;99.90;;;;;;5030133;28;20511;-66
2022/05/18 05:13:35;;;;;;;5.93;2.23;;;12.70;99.90;;;;;;5029562;28;20206;-66
2022/05/18 05:16:03;;;;;;;4.23;2.57;;;12.80;99.90;;;;;;5030076;28;20657;-65
2022/05/18 05:18:29;;;;;;;6.37;2.80;;;12.90;99.90;;;;;;5029679;28;20421;-66
2022/05/18 05:20:55;;;;;;;5.90;2.70;;;13.00;99.90;;;;;;5029942;28;20464;-66
2022/05/18 05:23:22;;;;;;;5.17;2.50;;;13.10;99.90;;;;;;5031396;28;20182;-66
2022/05/18 05:25:48;;;;;;;3.20;1.97;;;13.30;99.90;;;;;;5029618;28;20183;-64
2022/05/18 05:28:14;;;;;;;4.70;2.93;;;13.40;99.90;;;;;;5030029;28;20921;-65
2022/05/18 05:30:40;;;;;;;5.67;2.57;;;13.50;99.90;;;;;;5024916;28;20198;-65
2022/05/18 05:33:06;;;;;;;6.57;2.50;;;13.60;99.90;;;;;;5029268;28;20662;-65
2022/05/18 05:35:32;;;;;;;3.80;2.47;;;13.70;99.90;;;;;;5029744;28;20460;-65
2022/05/18 05:37:57;;;;;;;4.70;2.57;;;13.80;99.90;;;;;;5029428;28;20236;-65
2022/05/18 05:40:23;;;;;;;6.00;2.70;;;13.90;99.90;;;;;;5032445;28;20617;-65
2022/05/18 05:42:49;;;;;;;7.50;3.03;;;14.10;99.90;;;;;;5028009;28;20182;-65
2022/05/18 05:45:15;;;;;;;4.93;2.50;;;14.20;99.90;;;;;;5028192;28;20835;-66
2022/05/18 05:47:41;;;;;;;6.60;2.70;;;14.30;99.90;;;;;;5027570;28;20611;-66
2022/05/18 05:50:07;;;;;;;7.40;3.13;;;14.40;99.90;;;;;;5028054;28;20190;-66
2022/05/18 05:52:33;;;;;;;6.03;3.17;;;14.50;99.90;;;;;;5027521;28;20182;-65
2022/05/18 05:54:59;;;;;;;5.87;3.27;;;14.70;99.90;;;;;;5028294;28;20760;-66
2022/05/18 05:57:28;;;;;;;5.10;2.80;;;14.70;99.90;;;;;;5028335;28;20197;-66
2022/05/18 05:59:54;;;;;;;16.70;3.10;;;14.80;99.90;;;;;;5028443;28;20221;-65
2022/05/18 06:02:19;;;;;;;4.50;2.77;;;14.90;99.90;;;;;;5009453;28;20421;-65
2022/05/18 06:04:47;;;;;;;24.97;3.43;;;15.10;99.90;;;;;;5023106;28;20189;-65
2022/05/18 06:07:13;;;;;;;7.43;2.63;;;15.10;99.90;;;;;;5027222;28;20182;-66
2022/05/18 06:09:39;;;;;;;5.77;2.97;;;15.30;99.90;;;;;;5028113;28;20432;-65
2022/05/18 06:12:06;;;;;;;5.50;2.80;;;15.40;99.90;;;;;;5029724;28;20570;-66
2022/05/18 06:14:31;;;;;;;5.63;2.67;;;15.50;99.90;;;;;;5027772;28;20421;-65
2022/05/18 06:16:57;;;;;;;3.90;2.77;;;15.60;99.90;;;;;;5027090;28;20480;-65
2022/05/18 06:19:23;;;;;;;4.17;1.90;;;15.80;99.90;;;;;;5029954;28;20187;-65
2022/05/18 06:21:50;;;;;;;20.03;2.70;;;15.90;99.90;;;;;;5026930;28;20183;-65
2022/05/18 06:24:16;;;;;;;2.87;1.40;;;16.00;99.90;;;;;;5028607;28;20178;-66
2022/05/18 06:26:42;;;;;;;10.03;2.50;;;16.20;99.90;;;;;;5027056;28;20471;-65
2022/05/18 06:29:08;;;;;;;5.83;2.20;;;16.40;99.90;;;;;;5023652;28;20434;-65
2022/05/18 06:31:34;;;;;;;7.67;2.63;;;16.60;99.90;;;;;;5027818;28;20773;-66
2022/05/18 06:33:59;;;;;;;5.07;2.00;;;16.70;99.90;;;;;;5028312;28;20183;-66
2022/05/18 06:36:25;;;;;;;4.90;2.03;;;16.90;99.90;;;;;;5027713;28;20210;-66
2022/05/18 06:38:51;;;;;;;5.07;2.40;;;16.90;99.90;;;;;;5035044;28;20546;-67
2022/05/18 06:41:22;;;;;;;2.77;2.07;;;17.10;99.90;;;;;;5024666;28;20540;-66
2022/05/18 06:44:02;;;;;;;4.63;2.17;;;17.20;99.90;;;;;;5026819;28;20673;-66
2022/05/18 06:46:28;;;;;;;4.70;1.40;;;17.30;99.90;;;;;;5019191;28;20435;-66
2022/05/18 06:48:55;;;;;;;2.87;1.30;;;17.40;99.90;;;;;;5016855;28;20512;-67
2022/05/18 06:51:27;;;;;;;4.57;2.00;;;17.60;99.90;;;;;;5024293;28;20425;-66
2022/05/18 06:53:54;;;;;;;11.00;2.53;;;17.80;99.90;;;;;;5022786;28;20508;-66
2022/05/18 06:56:21;;;;;;;5.13;1.93;;;18.00;99.90;;;;;;5027925;28;20483;-67
2022/05/18 06:58:48;;;;;;;4.00;1.80;;;18.20;99.90;;;;;;5021161;28;20500;-67
2022/05/18 07:01:15;;;;;;;3.27;1.73;;;18.40;99.90;;;;;;5019891;28;20413;-67
2022/05/18 07:03:42;;;;;;;4.80;1.80;;;18.70;99.90;;;;;;5027334;28;20927;-67
2022/05/18 07:06:08;;;;;;;4.70;2.07;;;19.00;98.40;;;;;;5027556;28;21043;-67
2022/05/18 07:08:34;;;;;;;3.53;1.80;;;19.30;97.80;;;;;;5023784;28;20512;-67
2022/05/18 07:11:00;;;;;;;5.33;1.73;;;19.60;97.50;;;;;;5022454;28;20421;-67
2022/05/18 07:13:26;;;;;;;5.67;2.27;;;19.80;97.00;;;;;;5027681;28;20932;-66
2022/05/18 07:15:52;;;;;;;4.13;1.93;;;20.00;97.20;;;;;;5017875;28;20206;-67
2022/05/18 07:18:17;;;;;;;2.97;1.83;;;20.30;96.10;;;;;;5018568;28;20186;-67
2022/05/18 07:20:43;;;;;;;2.57;1.40;;;20.60;96.00;;;;;;5023848;28;20653;-67
2022/05/18 07:23:10;;;;;;;3.27;1.53;;;21.00;96.20;;;;;;5025625;28;20189;-67
2022/05/18 07:25:36;;;;;;;5.93;2.13;;;21.40;94.00;;;;;;5025287;28;20191;-67
2022/05/18 07:28:01;;;;;;;2.83;1.63;;;21.70;94.00;;;;;;5026513;28;20483;-68
2022/05/18 07:30:27;;;;;;;4.40;2.40;;;22.10;93.40;;;;;;5021400;28;20289;-68
2022/05/18 07:32:53;;;;;;;4.57;1.47;;;23.00;92.10;;;;;;5026842;28;20185;-65
2022/05/18 07:35:19;;;;;;;5.40;2.00;;;23.70;89.90;;;;;;5025379;28;20197;-64
2022/05/18 07:37:44;;;;;;;3.20;1.60;;;24.30;85.50;;;;;;5024902;28;20174;-65
2022/05/18 07:40:10;;;;;;;4.97;2.10;;;24.60;83.40;;;;;;5025780;28;20184;-65
2022/05/18 07:42:38;;;;;;;5.93;1.70;;;24.70;82.60;;;;;;5025797;28;20670;-65
2022/05/18 07:45:06;;;;;;;5.30;1.90;;;25.30;82.00;;;;;;5025998;28;20213;-65
2022/05/18 07:47:33;;;;;;;11.63;1.90;;;25.70;82.80;;;;;;5031764;28;20979;-65
2022/05/18 07:49:58;;;;;;;3.92;1.90;;;26.40;80.80;;;;;;5024818;28;20712;-66
2022/05/18 07:52:25;;;;;;;5.18;1.52;;;27.50;76.80;;;;;;5025096;28;20864;-66
2022/05/18 07:54:51;;;;;;;3.92;1.67;;;28.00;75.70;;;;;;5025919;28;20630;-66
2022/05/18 07:57:18;;;;;;;2.85;1.30;;;27.70;74.70;;;;;;5028751;28;20228;-66
2022/05/18 07:59:44;;;;;;;3.92;1.70;;;28.30;73.60;;;;;;5033404;28;20189;-65
2022/05/18 08:02:09;;;;;;;6.78;2.13;;;28.70;72.60;;;;;;5026165;28;20182;-65
2022/05/18 08:04:35;;;;;;;6.30;2.08;;;28.60;70.60;;;;;;5026640;28;20183;-65
2022/05/18 08:07:01;;;;;;;24.63;2.20;;;29.30;69.70;;;;;;5028198;28;20303;-65
2022/05/18 08:09:27;;;;;;;4.25;2.10;;;29.70;68.20;;;;;;5026574;28;20182;-64
2022/05/18 08:17:23;;;;;;;6.03;1.85;;;28.70;68.50;;;;;;5025568;28;20279;-65
2022/05/18 08:19:49;;;;;;;9.65;1.70;;;28.80;69.80;;;;;;5026562;28;20331;-65
2022/05/18 08:22:17;;;;;;;3.72;1.90;;;29.10;67.90;;;;;;5025570;28;20589;-65
2022/05/18 08:24:42;;;;;;;3.80;1.50;;;29.40;66.60;;;;;;5026853;28;20182;-66
2022/05/18 08:27:14;;;;;;;3.33;1.73;;;29.90;66.40;;;;;;5032285;28;20185;-65
2022/05/18 08:29:40;;;;;;;3.53;1.85;;;28.80;66.70;;;;;;5020840;28;20182;-66
2022/05/18 08:32:06;;;;;;;4.15;1.77;;;28.20;66.80;;;;;;5025922;28;20189;-66
2022/05/18 08:34:33;;;;;;;2.55;1.50;;;27.80;69.90;;;;;;5026189;28;20529;-67
2022/05/18 08:37:00;;;;;;;7.30;1.65;;;28.00;68.60;;;;;;5026201;28;20213;-66
2022/05/18 08:39:26;;;;;;;3.00;1.63;;;27.90;67.70;;;;;;5022967;28;20515;-66
2022/05/18 08:41:53;;;;;;;3.65;1.52;;;28.40;69.50;;;;;;5023697;28;20175;-66
2022/05/18 08:44:31;;;;;;;3.25;1.90;;;28.60;68.60;;;;;;5026086;28;20662;-66
2022/05/18 08:47:02;;;;;;;4.53;2.15;;;28.90;66.10;;;;;;5022842;28;20186;-66
2022/05/18 08:49:31;;;;;;;8.40;1.80;;;29.00;65.20;;;;;;5024294;28;20200;-66
2022/05/18 08:52:07;;;;;;;3.72;1.63;;;28.80;68.10;;;;;;5029864;28;20623;-66
2022/05/18 08:54:45;;;;;;;3.17;1.70;;;28.80;68.80;;;;;;5033105;28;20185;-66
2022/05/18 08:57:19;;;;;;;6.30;1.60;;;28.60;65.30;;;;;;5032003;28;20211;-66
2022/05/18 08:59:48;;;;;;;7.53;1.90;;;28.60;65.30;;;;;;5030220;28;20668;-66
2022/05/18 09:02:20;;;;;;;5.25;1.60;;;28.60;66.30;;;;;;5030309;28;20869;-66
2022/05/18 09:04:59;;;;;;;3.40;1.70;;;28.50;64.70;;;;;;5025672;28;20190;-66
2022/05/18 09:07:32;;;;;;;8.23;1.95;;;28.50;64.30;;;;;;5029139;28;20181;-66
2022/05/18 09:10:16;;;;;;;3.70;1.65;;;28.50;65.80;;;;;;5031078;28;20182;-66
2022/05/18 09:12:52;;;;;;;4.72;2.05;;;29.30;62.60;;;;;;5030251;28;20212;-66
2022/05/18 09:15:25;;;;;;;3.20;1.38;;;28.90;65.60;;;;;;5032184;28;20196;-66
2022/05/18 09:18:04;;;;;;;4.18;2.15;;;28.90;67.10;;;;;;5026231;28;20170;-65
2022/05/18 09:20:45;;;;;;;2.90;1.48;;;28.90;63.50;;;;;;5037976;28;20181;-66
2022/05/18 09:23:41;;;;;;;4.00;1.50;;;28.50;62.30;;;;;;5029918;28;20174;-66
2022/05/18 09:26:25;;;;;;;5.85;1.73;;;28.40;62.50;;;;;;5028126;28;20275;-66
2022/05/18 09:28:53;;;;;;;2.83;1.40;;;28.30;59.90;;;;;;5024497;28;20302;-66
2022/05/18 09:31:44;;;;;;;4.40;1.90;;;28.20;62.40;;;;;;5031533;28;20268;-66
2022/05/18 09:34:16;;;;;;;5.25;1.40;;;28.30;64.60;;;;;;5028418;28;20210;-66
2022/05/18 09:37:11;;;;;;;3.50;1.55;;;28.50;65.20;;;;;;5029034;28;20248;-66
2022/05/18 09:39:46;;;;;;;4.47;1.83;;;28.30;65.10;;;;;;5025119;28;20190;-66
2022/05/18 09:42:16;;;;;;;2.55;1.38;;;27.90;63.40;;;;;;5026126;28;20182;-66
2022/05/18 09:45:10;;;;;;;2.80;1.40;;;28.10;62.60;;;;;;5027817;28;20289;-66
2022/05/18 09:48:07;;;;;;;3.03;1.48;;;28.00;62.90;;;;;;5022843;28;20193;-66
2022/05/18 09:50:37;;;;;;;6.75;2.00;;;28.30;64.10;;;;;;5020272;28;20194;-66
2022/05/18 09:53:04;;;;;;;2.20;1.13;;;28.40;63.00;;;;;;5027400;28;20264;-66
2022/05/18 09:55:30;;;;;;;3.03;1.85;;;28.60;64.70;;;;;;5027711;28;20217;-66
2022/05/18 09:58:09;;;;;;;10.57;1.50;;;28.00;61.90;;;;;;5027203;28;20181;-66
2022/05/18 10:00:37;;;;;;;3.58;1.60;;;28.40;61.00;;;;;;5023697;28;20630;-66
2022/05/18 10:08:58;;;;;;;2.30;1.10;;;27.10;60.60;;;;;;5027146;28;20213;-64
2022/05/18 10:11:31;;;;;;;3.25;1.83;;;27.00;67.30;;;;;;5019228;28;20190;-64
2022/05/18 10:14:14;;;;;;;3.83;1.83;;;26.90;68.50;;;;;;5027354;28;20182;-64
2022/05/18 10:16:58;;;;;;;2.72;1.40;;;27.00;65.50;;;;;;5023360;28;20556;-64
2022/05/18 10:19:59;;;;;;;3.75;1.48;;;27.30;70.80;;;;;;5027400;28;20522;-66
2022/05/18 10:22:28;;;;;;;2.20;1.02;;;27.20;66.10;;;;;;5025347;28;20178;-66
2022/05/18 10:25:48;;;;;;;2.47;1.50;;;26.90;66.50;;;;;;5026849;28;20186;-66
2022/05/18 10:28:18;;;;;;;3.67;1.40;;;27.00;66.40;;;;;;5023346;28;20188;-66
2022/05/18 10:30:59;;;;;;;3.20;1.50;;;26.80;67.50;;;;;;5024698;28;20650;-66
2022/05/18 10:33:31;;;;;;;3.97;1.70;;;26.40;66.70;;;;;;5026952;28;20235;-66
2022/05/18 10:36:06;;;;;;;2.80;1.80;;;26.30;66.30;;;;;;5023175;28;20689;-67
2022/05/18 10:38:34;;;;;;;4.07;1.47;;;26.00;67.00;;;;;;5021225;28;20190;-66
2022/05/18 10:41:09;;;;;;;2.53;1.50;;;26.20;70.20;;;;;;5026778;28;20170;-65
2022/05/18 10:43:35;;;;;;;2.70;1.63;;;26.50;68.70;;;;;;5026489;28;20935;-66
2022/05/18 10:46:07;;;;;;;3.33;1.57;;;26.60;69.30;;;;;;5024756;28;20456;-65
2022/05/18 10:48:33;;;;;;;3.60;1.97;;;26.60;69.00;;;;;;5025080;28;20189;-65
2022/05/18 10:51:08;;;;;;;3.97;1.33;;;26.40;67.30;;;;;;5025274;28;20469;-67
2022/05/18 10:53:39;;;;;;;3.33;1.63;;;26.40;70.40;;;;;;5024762;28;20187;-66
2022/05/18 10:56:29;;;;;;;2.87;1.60;;;26.30;72.20;;;;;;5023645;28;20468;-66
2022/05/18 10:59:16;;;;;;;3.83;1.53;;;26.10;68.40;;;;;;5025229;28;20439;-66
2022/05/18 11:02:04;;;;;;;3.50;2.20;;;26.30;69.40;;;;;;5024976;28;20924;-66
2022/05/18 11:05:10;;;;;;;3.70;2.20;;;26.60;70.60;;;;;;5023550;28;20428;-66
2022/05/18 11:07:35;;;;;;;2.20;1.10;;;26.50;68.00;;;;;;5023987;28;20413;-67
2022/05/18 11:10:01;;;;;;;4.77;2.03;;;26.60;69.10;;;;;;5024160;28;20491;-66
2022/05/18 11:12:50;;;;;;;3.07;1.87;;;26.30;70.80;;;;;;5021636;28;20354;-66
2022/05/18 11:15:39;;;;;;;3.43;1.70;;;25.70;67.10;;;;;;5020988;28;20186;-66
2022/05/18 11:18:27;;;;;;;5.70;1.87;;;25.80;70.90;;;;;;5018319;28;20927;-67
2022/05/18 11:21:02;;;;;;;3.00;1.70;;;26.10;67.90;;;;;;5027647;28;20524;-68
2022/05/18 11:24:06;;;;;;;3.17;2.10;;;26.10;69.50;;;;;;5023808;28;20520;-66
2022/05/18 11:26:57;;;;;;;3.03;1.53;;;26.50;67.40;;;;;;5021739;28;20614;-67
2022/05/18 11:29:29;;;;;;;3.43;1.77;;;26.20;67.00;;;;;;5018511;28;20561;-66
2022/05/18 11:32:19;;;;;;;4.13;1.73;;;26.50;73.10;;;;;;5020198;28;20575;-67
2022/05/18 11:35:02;;;;;;;3.40;1.60;;;26.50;70.30;;;;;;5021303;28;20185;-68
2022/05/18 11:37:49;;;;;;;3.70;2.13;;;26.80;68.60;;;;;;5017836;28;20549;-66
2022/05/18 11:40:22;;;;;;;3.07;1.57;;;26.90;69.20;;;;;;5026251;28;20294;-66
2022/05/18 11:43:32;;;;;;;4.03;1.73;;;26.90;68.40;;;;;;5025056;28;20269;-67
2022/05/18 11:46:07;;;;;;;5.80;1.67;;;27.10;69.20;;;;;;5025222;28;20201;-67
2022/05/18 11:48:51;;;;;;;2.70;1.13;;;26.70;65.70;;;;;;5025427;28;20432;-67
2022/05/18 11:51:22;;;;;;;4.17;1.23;;;26.90;67.50;;;;;;5021828;28;20191;-67
2022/05/18 11:54:00;;;;;;;3.60;1.40;;;27.20;65.30;;;;;;5014004;28;20424;-64
2022/05/18 11:56:41;;;;;;;3.30;1.37;;;27.40;63.00;;;;;;5023504;28;20641;-65
2022/05/18 12:02:27;;;;;;;4.03;1.30;;;26.70;61.90;;;;;;5018261;28;20206;-67
2022/05/18 12:05:12;;;;;;;4.23;1.57;;;26.70;63.30;;;;;;5020383;28;20185;-66
2022/05/18 12:07:58;;;;;;;5.93;1.70;;;27.00;69.20;;;;;;5035117;28;20185;-67
2022/05/18 12:10:49;;;;;;;2.23;0.80;;;26.90;65.30;;;;;;5031063;28;20182;-67
2022/05/18 12:13:32;;;;;;;3.30;1.30;;;27.30;60.50;;;;;;5025926;28;20684;-66
2022/05/18 12:16:19;;;;;;;4.67;1.40;;;27.10;62.20;;;;;;5014172;28;20975;-66
2022/05/18 12:19:07;;;;;;;2.60;1.40;;;27.10;62.50;;;;;;5015303;28;20196;-66
2022/05/18 12:21:45;;;;;;;5.20;1.17;;;27.10;62.00;;;;;;5022677;28;20273;-66
2022/05/18 12:24:13;;;;;;;3.23;1.30;;;27.10;59.30;;;;;;5023454;28;20196;-66
2022/05/18 12:26:42;;;;;;;2.37;1.10;;;27.10;60.00;;;;;;5014987;28;20186;-66
2022/05/18 12:29:09;;;;;;;4.97;1.70;;;26.80;61.20;;;;;;5025349;28;20274;-67
2022/05/18 12:31:37;;;;;;;4.13;1.47;;;27.10;63.10;;;;;;5024062;28;20500;-67
2022/05/18 12:34:05;;;;;;;2.60;1.10;;;27.20;61.20;;;;;;5019225;28;20194;-66
2022/05/18 12:36:43;;;;;;;1.80;1.00;;;27.10;57.90;;;;;;5021717;28;20263;-67
2022/05/18 12:39:31;;;;;;;1.57;0.77;;;27.30;62.30;;;;;;5026937;28;20178;-66
2022/05/18 12:42:00;;;;;;;2.33;1.33;;;27.50;61.00;;;;;;5024134;28;20674;-66
2022/05/18 12:44:45;;;;;;;2.87;1.40;;;27.90;59.80;;;;;;5024254;28;20220;-66
2022/05/18 12:47:29;;;;;;;2.23;0.80;;;28.00;58.10;;;;;;5023763;28;20260;-67
2022/05/18 12:50:03;;;;;;;2.50;1.10;;;27.70;60.00;;;;;;5025108;28;20189;-66
2022/05/18 12:52:55;;;;;;;9.33;1.10;;;27.80;62.30;;;;;;5021396;28;20186;-65
2022/05/18 12:55:50;;;;;;;4.17;1.20;;;27.70;61.20;;;;;;5023721;28;20217;-65
2022/05/18 12:58:36;;;;;;;2.95;1.00;;;28.00;60.40;;;;;;5022220;28;20218;-66
2022/05/18 13:01:11;;;;;;;3.70;1.63;;;28.30;59.80;;;;;;5020784;28;20186;-66
2022/05/18 13:03:52;;;;;;;3.80;1.50;;;27.70;57.10;;;;;;5030113;28;20186;-66
2022/05/18 13:06:36;;;;;;;2.20;1.27;;;27.40;57.00;;;;;;5020185;28;20208;-66
2022/05/18 13:09:02;;;;;;;1.97;0.90;;;27.40;58.00;;;;;;5012838;28;20190;-64
2022/05/18 13:11:56;;;;;;;2.07;1.03;;;27.70;56.00;;;;;;5016287;28;20224;-65
2022/05/18 13:14:34;;;;;;;3.77;1.20;;;27.90;59.00;;;;;;5015619;28;20355;-65
2022/05/18 13:17:00;;;;;;;2.85;1.38;;;28.00;59.70;;;;;;5022432;28;20533;-65
2022/05/18 13:19:31;;;;;;;2.80;1.00;;;27.90;61.50;;;;;;5024593;28;20253;-65
2022/05/18 13:22:24;;;;;;;2.50;1.35;;;28.10;59.80;;;;;;5027336;28;20201;-65